createdAt,value
2022-12-17T00:01:21.805Z,30.20
2022-12-17T00:04:42.349Z,29.03
2022-12-17T00:08:04.220Z,30.67
2022-12-17T00:11:24.717Z,25.40
2022-12-17T00:14:45.174Z,31.37
2022-12-17T00:18:05.628Z,25.73
2022-12-17T00:21:27.610Z,28.43
2022-12-17T00:24:49.385Z,28.03
2022-12-17T00:28:10.014Z,28.90
2022-12-17T00:31:30.578Z,26.20
2022-12-17T00:34:51.003Z,24.87
2022-12-17T00:38:11.334Z,24.77
2022-12-17T00:41:33.126Z,29.63
2022-12-17T00:44:53.617Z,25.73
2022-12-17T00:48:14.226Z,25.37
2022-12-17T00:51:35.113Z,26.83
2022-12-17T00:55:10.255Z,30.03
2022-12-17T00:58:32.235Z,25.33
2022-12-17T01:01:53.053Z,23.13
2022-12-17T01:05:14.463Z,24.70
2022-12-17T01:08:35.025Z,23.63
2022-12-17T01:11:56.495Z,28.83
2022-12-17T01:15:18.608Z,29.03
2022-12-17T01:18:40.129Z,28.43
2022-12-17T01:22:01.168Z,26.93
2022-12-17T01:25:22.195Z,27.57
2022-12-17T01:28:43.600Z,33.30
2022-12-17T01:32:05.385Z,30.13
2022-12-17T01:35:26.365Z,26.80
2022-12-17T01:38:46.875Z,29.07
2022-12-17T01:42:07.123Z,28.53
2022-12-17T01:45:31.073Z,32.50
2022-12-17T01:48:58.920Z,29.00
2022-12-17T01:52:20.865Z,31.30
2022-12-17T01:55:41.374Z,25.73
2022-12-17T01:59:02.408Z,25.43
2022-12-17T02:02:23.085Z,31.97
2022-12-17T02:05:51.533Z,28.63
2022-12-17T02:09:21.310Z,27.87
2022-12-17T02:12:48.364Z,28.27
2022-12-17T02:16:13.393Z,27.43
2022-12-17T02:19:42.979Z,25.23
2022-12-17T02:23:14.572Z,29.70
2022-12-17T02:26:41.106Z,25.93
2022-12-17T02:30:07.358Z,25.97
2022-12-17T02:33:29.276Z,31.17
2022-12-17T02:36:53.238Z,28.37
2022-12-17T02:40:14.029Z,26.77
2022-12-17T02:43:43.944Z,31.67
2022-12-17T02:47:07.314Z,27.50
2022-12-17T02:50:30.100Z,26.13
2022-12-17T02:53:51.465Z,32.53
2022-12-17T02:57:13.112Z,29.50
2022-12-17T03:00:34.895Z,26.80
2022-12-17T03:03:56.746Z,34.17
2022-12-17T03:07:17.299Z,27.17
2022-12-17T03:10:37.737Z,31.33
2022-12-17T03:13:58.263Z,28.47
2022-12-17T03:17:19.256Z,27.87
2022-12-17T03:20:40.922Z,29.03
2022-12-17T03:24:01.205Z,31.53
2022-12-17T03:27:21.739Z,30.17
2022-12-17T03:30:45.799Z,32.70
2022-12-17T03:34:09.245Z,33.70
2022-12-17T03:37:31.114Z,30.00
2022-12-17T03:40:51.637Z,27.40
2022-12-17T03:44:12.154Z,28.60
2022-12-17T03:47:32.537Z,27.50
2022-12-17T03:50:53.042Z,31.80
2022-12-17T03:54:14.768Z,34.87
2022-12-17T03:57:35.183Z,34.27
2022-12-17T04:00:55.717Z,28.27
2022-12-17T04:04:27.618Z,28.47
2022-12-17T04:07:48.423Z,28.50
2022-12-17T04:11:10.198Z,25.50
2022-12-17T04:14:30.701Z,30.07
2022-12-17T04:17:50.984Z,28.07
2022-12-17T04:21:11.432Z,28.90
2022-12-17T04:24:31.863Z,31.73
2022-12-17T04:27:53.689Z,30.80
2022-12-17T04:31:14.187Z,26.87
2022-12-17T04:34:34.658Z,25.60
2022-12-17T04:37:55.042Z,31.00
2022-12-17T04:41:15.515Z,31.03
2022-12-17T04:44:37.406Z,27.43
2022-12-17T04:47:57.831Z,25.67
2022-12-17T04:51:18.254Z,30.07
2022-12-17T04:54:38.659Z,28.17
2022-12-17T04:57:59.271Z,27.67
2022-12-17T05:01:17.662Z,27.10
2022-12-17T05:04:38.369Z,24.33
2022-12-17T05:07:58.826Z,30.40
2022-12-17T05:11:21.383Z,27.70
2022-12-17T05:14:56.402Z,27.03
2022-12-17T05:18:25.042Z,26.40
2022-12-17T05:21:45.717Z,24.10
2022-12-17T05:25:06.273Z,29.30
2022-12-17T05:28:26.781Z,26.97
2022-12-17T05:31:47.216Z,24.50
2022-12-17T05:35:09.164Z,25.47
2022-12-17T05:38:30.097Z,28.90
2022-12-17T05:41:51.005Z,28.20
2022-12-17T05:45:11.435Z,28.20
2022-12-17T05:48:31.913Z,26.63
2022-12-17T05:51:53.676Z,30.67
2022-12-17T05:55:14.330Z,28.37
2022-12-17T05:58:34.928Z,26.70
2022-12-17T06:01:55.509Z,28.53
2022-12-17T06:05:15.920Z,26.87
2022-12-17T06:08:37.781Z,22.87
2022-12-17T06:12:02.540Z,26.47
2022-12-17T06:15:24.118Z,27.83
2022-12-17T06:18:45.052Z,24.77
2022-12-17T06:22:05.662Z,27.27
2022-12-17T06:25:27.701Z,31.73
2022-12-17T06:28:48.280Z,25.53
2022-12-17T06:32:08.753Z,21.30
2022-12-17T06:35:29.025Z,22.27
2022-12-17T06:38:49.390Z,31.00
2022-12-17T06:42:11.223Z,26.00
2022-12-17T06:45:31.887Z,23.97
2022-12-17T06:48:52.237Z,23.17
2022-12-17T06:52:12.737Z,23.80
2022-12-17T06:55:41.538Z,27.30
2022-12-17T06:59:03.579Z,25.80
2022-12-17T07:02:24.592Z,27.20
2022-12-17T07:05:45.737Z,27.17
2022-12-17T07:09:17.534Z,24.97
2022-12-17T07:12:43.255Z,21.23
2022-12-17T07:16:05.276Z,21.80
2022-12-17T07:19:27.606Z,19.00
2022-12-17T07:22:48.177Z,22.53
2022-12-17T07:26:08.621Z,26.07
2022-12-17T07:29:29.308Z,23.97
2022-12-17T07:32:51.218Z,22.87
2022-12-17T07:36:12.903Z,23.73
2022-12-17T07:39:33.578Z,22.33
2022-12-17T07:42:53.944Z,22.27
2022-12-17T07:46:14.291Z,20.33
2022-12-17T07:49:41.258Z,20.43
2022-12-17T07:53:02.011Z,31.00
2022-12-17T07:56:22.794Z,25.43
2022-12-17T07:59:43.252Z,26.40
2022-12-17T08:03:03.958Z,19.93
2022-12-17T08:06:26.096Z,20.67
2022-12-17T08:09:46.533Z,28.00
2022-12-17T08:13:14.444Z,22.10
2022-12-17T08:16:36.239Z,18.67
2022-12-17T08:19:56.716Z,25.33
2022-12-17T08:23:22.933Z,21.00
2022-12-17T08:26:47.919Z,22.40
2022-12-17T08:30:09.204Z,22.97
2022-12-17T08:33:29.703Z,15.87
2022-12-17T08:36:50.081Z,19.97
2022-12-17T08:40:11.973Z,20.77
2022-12-17T08:43:32.435Z,20.53
2022-12-17T08:46:52.942Z,21.87
2022-12-17T08:50:24.854Z,21.43
2022-12-17T08:53:45.428Z,21.57
2022-12-17T08:57:07.232Z,19.50
2022-12-17T09:00:28.925Z,21.00
2022-12-17T09:03:49.562Z,20.23
2022-12-17T09:07:10.347Z,19.87
2022-12-17T09:10:30.784Z,20.63
2022-12-17T09:13:53.170Z,19.10
2022-12-17T09:17:13.576Z,21.33
2022-12-17T09:20:33.924Z,18.23
2022-12-17T09:23:54.286Z,25.07
2022-12-17T09:27:14.808Z,20.87
2022-12-17T09:30:36.881Z,24.17
2022-12-17T09:33:57.440Z,23.00
2022-12-17T09:37:17.851Z,29.43
2022-12-17T09:40:42.418Z,23.97
2022-12-17T09:44:08.046Z,22.77
2022-12-17T09:47:44.272Z,24.03
2022-12-17T09:51:08.830Z,21.53
2022-12-17T09:54:38.156Z,19.53
2022-12-17T09:57:58.566Z,20.23
2022-12-17T10:01:19.144Z,19.00
2022-12-17T10:04:50.855Z,20.57
2022-12-17T10:08:12.688Z,20.17
2022-12-17T10:11:40.827Z,19.17
2022-12-17T10:15:01.442Z,22.27
2022-12-17T10:18:25.300Z,23.00
2022-12-17T10:21:52.038Z,18.37
2022-12-17T10:25:12.686Z,18.47
2022-12-17T10:28:35.443Z,16.00
2022-12-17T10:31:55.912Z,17.60
2022-12-17T10:35:17.742Z,15.30
2022-12-17T10:38:41.873Z,14.07
2022-12-17T10:42:02.334Z,14.63
2022-12-17T10:45:38.850Z,12.40
2022-12-17T10:48:59.284Z,14.00
2022-12-17T10:52:22.785Z,13.83
2022-12-17T10:55:47.973Z,13.80
2022-12-17T10:59:10.827Z,15.00
2022-12-17T11:02:36.306Z,16.43
2022-12-17T11:06:00.049Z,14.50
2022-12-17T11:09:24.653Z,15.57
2022-12-17T11:12:50.847Z,14.10
2022-12-17T11:16:14.962Z,14.77
2022-12-17T11:20:07.147Z,13.23
2022-12-17T11:23:34.577Z,11.47
2022-12-17T11:26:58.250Z,10.23
2022-12-17T11:30:20.442Z,10.47
2022-12-17T11:33:49.129Z,9.30
2022-12-17T11:37:13.942Z,10.53
2022-12-17T11:40:44.217Z,11.10
2022-12-17T11:44:14.693Z,10.17
2022-12-17T11:47:46.283Z,11.13
2022-12-17T11:51:13.402Z,11.60
2022-12-17T11:54:41.008Z,13.73
2022-12-17T11:58:11.052Z,16.33
2022-12-17T12:01:38.865Z,16.03
2022-12-17T12:05:21.765Z,17.50
2022-12-17T12:08:45.364Z,12.00
2022-12-17T12:12:15.467Z,13.03
2022-12-17T12:15:44.096Z,12.40
2022-12-17T12:19:13.429Z,14.03
2022-12-17T12:22:39.957Z,23.77
2022-12-17T12:26:22.791Z,12.50
2022-12-17T12:29:47.940Z,8.03
2022-12-17T12:33:20.156Z,10.03
2022-12-17T12:36:44.769Z,9.63
2022-12-17T12:40:18.114Z,9.97
2022-12-17T12:43:41.914Z,7.30
2022-12-17T12:47:06.590Z,8.30
2022-12-17T12:50:36.444Z,6.90
2022-12-17T12:53:56.921Z,8.40
2022-12-17T12:57:18.674Z,5.97
2022-12-17T13:00:48.428Z,6.23
2022-12-17T13:04:13.335Z,6.80
2022-12-17T13:07:25.739Z,5.80
2022-12-17T13:10:32.432Z,9.70
2022-12-17T13:13:40.863Z,6.97
2022-12-17T13:16:53.341Z,7.33
2022-12-17T13:20:19.766Z,9.47
2022-12-17T13:23:35.191Z,5.60
2022-12-17T13:26:45.275Z,5.80
2022-12-17T13:29:49.624Z,5.70
2022-12-17T13:33:05.963Z,7.30
2022-12-17T13:36:17.928Z,7.20
2022-12-17T13:39:31.328Z,6.43
2022-12-17T13:42:37.227Z,8.90
2022-12-17T13:45:44.978Z,7.57
2022-12-17T13:48:54.884Z,6.87
2022-12-17T13:52:11.436Z,7.97
2022-12-17T13:55:21.086Z,7.63
2022-12-17T13:58:26.405Z,7.80
2022-12-17T14:01:31.261Z,6.67
2022-12-17T14:04:34.343Z,6.63
2022-12-17T14:07:40.129Z,7.10
2022-12-17T14:11:13.432Z,9.93
2022-12-17T14:14:25.224Z,8.00
2022-12-17T14:17:31.222Z,7.50
2022-12-17T14:20:36.856Z,9.37
2022-12-17T14:23:41.320Z,9.73
2022-12-17T14:26:51.488Z,10.43
2022-12-17T14:29:54.616Z,12.03
2022-12-17T14:33:01.432Z,11.43
2022-12-17T14:36:07.228Z,8.57
2022-12-17T14:39:20.519Z,11.90
2022-12-17T14:42:26.175Z,10.07
2022-12-17T14:45:30.066Z,10.87
2022-12-17T14:48:48.489Z,11.63
2022-12-17T14:51:51.609Z,13.20
2022-12-17T14:54:54.764Z,10.23
2022-12-17T14:58:09.833Z,10.90
2022-12-17T15:01:14.762Z,10.10
2022-12-17T15:04:19.549Z,11.30
2022-12-17T15:07:26.690Z,10.03
2022-12-17T15:10:29.671Z,11.17
2022-12-17T15:13:33.012Z,15.13
2022-12-17T15:16:36.048Z,9.80
2022-12-17T15:19:40.377Z,8.27
2022-12-17T15:22:43.422Z,10.27
2022-12-17T15:25:47.797Z,10.23
2022-12-17T15:28:50.799Z,10.27
2022-12-17T15:31:53.842Z,8.00
2022-12-17T15:34:58.189Z,8.50
2022-12-17T15:38:01.362Z,9.73
2022-12-17T15:41:26.007Z,12.40
2022-12-17T15:44:28.058Z,9.80
2022-12-17T15:47:31.070Z,10.33
2022-12-17T15:50:35.405Z,9.80
2022-12-17T15:53:38.815Z,9.57
2022-12-17T15:56:42.061Z,13.40
2022-12-17T15:59:45.128Z,10.90
2022-12-17T16:02:49.294Z,13.23
2022-12-17T16:05:54.122Z,13.97
2022-12-17T16:08:57.219Z,13.57
2022-12-17T16:12:00.579Z,12.97
2022-12-17T16:15:03.698Z,11.53
2022-12-17T16:18:06.725Z,16.07
2022-12-17T16:21:11.068Z,13.33
2022-12-17T16:24:14.184Z,14.43
2022-12-17T16:27:18.058Z,15.77
2022-12-17T16:30:21.101Z,14.27
2022-12-17T16:33:24.071Z,12.37
2022-12-17T16:36:28.479Z,12.83
2022-12-17T16:39:31.481Z,13.27
2022-12-17T16:42:34.467Z,15.43
2022-12-17T16:45:46.957Z,14.77
2022-12-17T16:48:50.023Z,13.53
2022-12-17T16:51:57.874Z,12.27
2022-12-17T16:55:00.987Z,11.17
2022-12-17T16:58:04.048Z,11.43
2022-12-17T17:01:07.240Z,9.30
2022-12-17T17:04:11.572Z,10.53
2022-12-17T17:07:15.937Z,13.63
2022-12-17T17:10:19.170Z,12.50
2022-12-17T17:13:22.162Z,14.37
2022-12-17T17:16:26.681Z,13.27
2022-12-17T17:19:29.711Z,12.00
2022-12-17T17:22:35.218Z,12.20
2022-12-17T17:25:57.315Z,12.23
2022-12-17T17:29:01.864Z,15.87
2022-12-17T17:32:12.995Z,12.63
2022-12-17T17:35:17.030Z,17.40
2022-12-17T17:38:21.357Z,12.70
2022-12-17T17:41:26.255Z,15.93
2022-12-17T17:44:29.338Z,13.87
2022-12-17T17:47:32.366Z,12.77
2022-12-17T17:50:35.351Z,15.53
2022-12-17T17:53:40.139Z,17.60
2022-12-17T17:56:43.954Z,16.87
2022-12-17T17:59:46.940Z,14.83
2022-12-17T18:02:50.006Z,17.33
2022-12-17T18:05:53.168Z,15.23
2022-12-17T18:08:58.376Z,16.40
2022-12-17T18:12:21.361Z,18.33
2022-12-17T18:15:23.399Z,19.50
2022-12-17T18:18:26.413Z,15.23
2022-12-17T18:21:31.008Z,17.67
2022-12-17T18:24:35.471Z,16.27
2022-12-17T18:27:38.533Z,13.97
2022-12-17T18:30:41.538Z,14.40
2022-12-17T18:33:48.852Z,19.50
2022-12-17T18:36:51.962Z,17.60
2022-12-17T18:39:56.275Z,18.67
2022-12-17T18:43:16.929Z,22.20
2022-12-17T18:46:23.290Z,20.60
2022-12-17T18:49:27.693Z,16.73
2022-12-17T18:52:30.690Z,15.83
2022-12-17T18:55:40.308Z,18.07
2022-12-17T18:58:43.826Z,15.43
2022-12-17T19:01:48.046Z,16.73
2022-12-17T19:04:51.163Z,15.67
2022-12-17T19:07:54.150Z,20.53
2022-12-17T19:11:05.149Z,18.17
2022-12-17T19:14:08.151Z,18.30
2022-12-17T19:17:11.209Z,17.77
2022-12-17T19:20:14.231Z,18.40
2022-12-17T19:23:17.219Z,16.90
2022-12-17T19:26:22.398Z,16.30
2022-12-17T19:29:25.452Z,18.20
2022-12-17T19:32:28.856Z,20.17
2022-12-17T19:35:31.818Z,17.07
2022-12-17T19:38:35.999Z,18.87
2022-12-17T19:41:41.070Z,21.80
2022-12-17T19:44:44.068Z,18.53
2022-12-17T19:47:47.189Z,19.07
2022-12-17T19:50:57.096Z,16.07
2022-12-17T19:54:08.002Z,21.73
2022-12-17T19:57:13.390Z,17.80
2022-12-17T20:00:16.949Z,19.87
2022-12-17T20:03:20.126Z,13.37
2022-12-17T20:06:25.524Z,14.73
2022-12-17T20:09:28.512Z,18.17
2022-12-17T20:12:32.892Z,16.77
2022-12-17T20:15:35.909Z,18.70
2022-12-17T20:18:39.239Z,18.73
2022-12-17T20:21:42.721Z,12.57
2022-12-17T20:24:45.694Z,15.37
2022-12-17T20:27:50.016Z,15.40
2022-12-17T20:30:55.537Z,16.10
2022-12-17T20:34:05.314Z,17.63
2022-12-17T20:37:08.292Z,16.40
2022-12-17T20:40:12.048Z,18.30
2022-12-17T20:43:16.403Z,17.43
2022-12-17T20:46:21.177Z,15.80
2022-12-17T20:49:24.269Z,18.47
2022-12-17T20:52:27.534Z,18.07
2022-12-17T20:55:31.429Z,16.97
2022-12-17T20:58:36.431Z,13.60
2022-12-17T21:01:39.723Z,15.40
2022-12-17T21:04:42.799Z,15.00
2022-12-17T21:07:45.908Z,15.93
2022-12-17T21:10:48.898Z,16.40
2022-12-17T21:13:54.052Z,15.70
2022-12-17T21:16:57.145Z,15.83
2022-12-17T21:20:04.629Z,14.20
2022-12-17T21:23:09.776Z,14.97
2022-12-17T21:26:15.123Z,14.23
2022-12-17T21:29:19.468Z,13.87
2022-12-17T21:32:22.513Z,11.70
2022-12-17T21:35:25.587Z,15.33
2022-12-17T21:38:29.423Z,12.50
2022-12-17T21:41:34.321Z,14.87
2022-12-17T21:44:38.713Z,14.00
2022-12-17T21:47:41.816Z,13.60
2022-12-17T21:50:45.708Z,14.93
2022-12-17T21:53:52.846Z,12.37
2022-12-17T21:56:55.899Z,12.27
2022-12-17T22:00:00.266Z,12.80
2022-12-17T22:03:03.291Z,11.27
2022-12-17T22:06:08.162Z,15.53
2022-12-17T22:09:18.345Z,12.60
2022-12-17T22:12:41.451Z,9.50
2022-12-17T22:15:47.957Z,11.23
2022-12-17T22:18:52.033Z,10.43
2022-12-17T22:21:57.821Z,12.27
2022-12-17T22:25:06.199Z,11.20
2022-12-17T22:28:11.973Z,12.77
2022-12-17T22:31:35.493Z,12.30
2022-12-17T22:35:19.035Z,12.20
2022-12-17T22:39:10.970Z,10.33
2022-12-17T22:43:58.559Z,9.60
2022-12-17T22:45:10.264Z,8.67
2022-12-17T22:48:15.885Z,10.47
2022-12-17T22:51:28.794Z,9.53
2022-12-17T22:54:38.597Z,9.53
2022-12-17T22:57:41.848Z,9.90
2022-12-17T23:00:45.235Z,11.67
2022-12-17T23:03:49.733Z,12.77
2022-12-17T23:06:52.872Z,11.47
2022-12-17T23:09:56.112Z,11.83
2022-12-17T23:12:59.191Z,11.20
2022-12-17T23:16:02.696Z,11.87
2022-12-17T23:19:07.744Z,11.23
2022-12-17T23:22:10.731Z,10.80
2022-12-17T23:25:15.064Z,12.97
2022-12-17T23:28:18.039Z,10.10
2022-12-17T23:31:22.229Z,10.90
2022-12-17T23:34:26.604Z,10.37
2022-12-17T23:37:30.051Z,11.97
2022-12-17T23:40:34.308Z,12.70
2022-12-17T23:43:37.732Z,13.30
2022-12-17T23:46:41.132Z,10.87
2022-12-17T23:49:45.541Z,11.27
2022-12-17T23:52:48.618Z,12.03
2022-12-17T23:55:51.603Z,11.40
2022-12-17T23:58:56.373Z,12.27
